createdAt,value
2024-04-01T00:00:20.074Z,99777.19
2024-04-01T00:01:21.103Z,99784.91
2024-04-01T00:02:21.962Z,99783.50
2024-04-01T00:03:22.824Z,99788.22
2024-04-01T00:04:23.669Z,99793.16
2024-04-01T00:05:24.513Z,99793.44
2024-04-01T00:06:25.350Z,99788.72
2024-04-01T00:07:26.205Z,99785.94
2024-04-01T00:08:27.317Z,99785.13
2024-04-01T00:09:28.158Z,99788.72
2024-04-01T00:10:28.988Z,99785.38
2024-04-01T00:11:29.842Z,99778.72
2024-04-01T00:12:30.696Z,99775.13
2024-04-01T00:13:31.532Z,99777.91
2024-04-01T00:14:32.386Z,99777.63
2024-04-01T00:15:33.215Z,99779.31
2024-04-01T00:16:34.077Z,99773.50
2024-04-01T00:17:34.950Z,99768.56
2024-04-01T00:18:35.798Z,99788.28
2024-04-01T00:19:36.631Z,99783.56
2024-04-01T00:20:37.689Z,99778.59
2024-04-01T00:21:38.546Z,99776.94
2024-04-01T00:22:39.385Z,99770.53
2024-04-01T00:23:40.234Z,99774.16
2024-04-01T00:24:41.065Z,99780.28
2024-04-01T00:25:41.924Z,99772.47
2024-04-01T00:26:43.818Z,99774.41
2024-04-01T00:27:44.788Z,99774.16
2024-04-01T00:28:45.632Z,99777.75
2024-04-01T00:29:46.471Z,99780.22
2024-04-01T00:30:47.315Z,99771.06
2024-04-01T00:31:48.168Z,99781.88
2024-04-01T00:32:49.003Z,99774.72
2024-04-01T00:33:50.539Z,99784.72
2024-04-01T00:34:54.049Z,99777.50
2024-04-01T00:35:58.950Z,99782.47
2024-04-01T00:36:59.842Z,99772.84
2024-04-01T00:38:00.684Z,99773.13
2024-04-01T00:39:01.735Z,99777.03
2024-04-01T00:40:02.796Z,99773.19
2024-04-01T00:41:03.744Z,99774.00
2024-04-01T00:42:05.026Z,99773.44
2024-04-01T00:43:09.252Z,99784.84
2024-04-01T00:44:10.101Z,99774.84
2024-04-01T00:45:10.942Z,99769.81
2024-04-01T00:46:11.775Z,99769.56
2024-04-01T00:47:12.636Z,99769.00
2024-04-01T00:48:14.027Z,99762.59
2024-04-01T00:49:16.498Z,99770.34
2024-04-01T00:50:17.898Z,99763.44
2024-04-01T00:51:19.088Z,99771.81
2024-04-01T00:52:19.965Z,99770.16
2024-04-01T00:53:20.898Z,99765.97
2024-04-01T00:54:21.727Z,99770.94
2024-04-01T00:55:22.663Z,99778.97
2024-04-01T00:56:23.580Z,99779.81
2024-04-01T00:57:24.483Z,99785.69
2024-04-01T00:58:25.458Z,99780.66
2024-04-01T00:59:26.295Z,99770.97
2024-04-01T01:00:27.171Z,99770.41
2024-04-01T01:01:28.016Z,99775.09
2024-04-01T01:02:29.571Z,99769.56
2024-04-01T01:03:30.441Z,99775.38
2024-04-01T01:04:31.276Z,99766.22
2024-04-01T01:05:32.318Z,99769.00
2024-04-01T01:06:33.202Z,99766.47
2024-04-01T01:07:34.032Z,99759.84
2024-04-01T01:08:34.864Z,99759.25
2024-04-01T01:09:36.503Z,99761.78
2024-04-01T01:10:37.378Z,99766.75
2024-04-01T01:11:38.901Z,99760.63
2024-04-01T01:12:40.324Z,99753.41
2024-04-01T01:13:41.163Z,99765.59
2024-04-01T01:14:41.996Z,99760.63
2024-04-01T01:15:42.834Z,99755.34
2024-04-01T01:16:43.732Z,99752.81
2024-04-01T01:17:45.610Z,99755.59
2024-04-01T01:18:46.452Z,99750.06
2024-04-01T01:19:47.288Z,99748.94
2024-04-01T01:20:48.160Z,99744.50
2024-04-01T01:21:48.998Z,99746.69
2024-04-01T01:22:49.832Z,99745.59
2024-04-01T01:23:50.695Z,99748.13
2024-04-01T01:24:51.528Z,99745.59
2024-04-01T01:25:52.378Z,99742.84
2024-04-01T01:26:55.577Z,99746.97
2024-04-01T01:27:56.428Z,99732.84
2024-04-01T01:28:58.628Z,99737.81
2024-04-01T01:30:04.202Z,99743.03
2024-04-01T01:31:05.275Z,99738.59
2024-04-01T01:32:06.251Z,99732.78
2024-04-01T01:33:07.211Z,99738.59
2024-04-01T01:34:08.048Z,99738.31
2024-04-01T01:35:09.205Z,99739.44
2024-04-01T01:36:10.062Z,99736.41
2024-04-01T01:37:10.916Z,99725.88
2024-04-01T01:38:13.139Z,99726.41
2024-04-01T01:39:13.980Z,99733.03
2024-04-01T01:40:14.867Z,99731.69
2024-04-01T01:41:15.699Z,99734.72
2024-04-01T01:42:16.540Z,99728.34
2024-04-01T01:43:17.418Z,99732.78
2024-04-01T01:44:18.253Z,99737.75
2024-04-01T01:45:19.112Z,99730.28
2024-04-01T01:46:19.958Z,99733.63
2024-04-01T01:47:20.800Z,99732.47
2024-04-01T01:48:21.631Z,99736.91
2024-04-01T01:49:23.873Z,99729.97
2024-04-01T01:50:24.774Z,99741.88
2024-04-01T01:51:27.190Z,99740.53
2024-04-01T01:52:28.025Z,99734.97
2024-04-01T01:53:28.878Z,99735.56
2024-04-01T01:54:29.727Z,99743.34
2024-04-01T01:55:30.570Z,99736.41
2024-04-01T01:56:32.047Z,99739.44
2024-04-01T01:57:33.176Z,99738.31
2024-04-01T01:58:34.052Z,99737.81
2024-04-01T01:59:34.931Z,99742.00
2024-04-01T02:00:35.766Z,99744.25
2024-04-01T02:01:36.612Z,99741.22
2024-04-01T02:02:37.448Z,99741.47
2024-04-01T02:03:38.338Z,99732.38
2024-04-01T02:04:39.264Z,99733.22
2024-04-01T02:05:41.887Z,99731.34
2024-04-01T02:06:42.779Z,99726.91
2024-04-01T02:07:43.630Z,99718.06
2024-04-01T02:08:44.461Z,99718.06
2024-04-01T02:09:45.304Z,99724.28
2024-04-01T02:10:56.123Z,99715.66
2024-04-01T02:11:57.668Z,99718.72
2024-04-01T02:12:58.533Z,99710.72
2024-04-01T02:13:59.458Z,99722.66
2024-04-01T02:15:00.319Z,99724.00
2024-04-01T02:16:07.909Z,99719.03
2024-04-01T02:17:08.819Z,99724.13
2024-04-01T02:18:09.678Z,99725.53
2024-04-01T02:19:10.515Z,99711.13
2024-04-01T02:20:16.069Z,99711.72
2024-04-01T02:21:18.651Z,99722.81
2024-04-01T02:22:22.799Z,99714.22
2024-04-01T02:23:29.581Z,99713.94
2024-04-01T02:24:30.413Z,99710.09
2024-04-01T02:25:34.075Z,99719.81
2024-04-01T02:26:34.999Z,99713.16
2024-04-01T02:27:35.837Z,99711.50
2024-04-01T02:28:36.668Z,99703.44
2024-04-01T02:29:37.912Z,99718.72
2024-04-01T02:30:38.762Z,99715.41
2024-04-01T02:31:39.599Z,99718.13
2024-04-01T02:32:40.601Z,99708.66
2024-04-01T02:33:41.432Z,99711.44
2024-04-01T02:34:42.269Z,99714.75
2024-04-01T02:35:43.153Z,99711.72
2024-04-01T02:36:43.988Z,99703.91
2024-04-01T02:37:44.832Z,99708.94
2024-04-01T02:38:48.717Z,99706.16
2024-04-01T02:39:49.550Z,99707.53
2024-04-01T02:40:50.405Z,99705.59
2024-04-01T02:41:51.548Z,99701.66
2024-04-01T02:42:52.388Z,99702.50
2024-04-01T02:43:53.240Z,99700.25
2024-04-01T02:44:54.113Z,99697.47
2024-04-01T02:45:54.957Z,99693.31
2024-04-01T02:46:55.793Z,99704.66
2024-04-01T02:47:56.736Z,99704.34
2024-04-01T02:48:57.571Z,99704.59
2024-04-01T02:49:58.565Z,99693.78
2024-04-01T02:50:59.401Z,99697.66
2024-04-01T02:52:00.229Z,99685.41
2024-04-01T02:53:01.145Z,99702.03
2024-04-01T02:54:02.092Z,99687.88
2024-04-01T02:55:03.079Z,99704.25
2024-04-01T02:56:07.019Z,99697.34
2024-04-01T02:57:08.758Z,99706.44
2024-04-01T02:58:09.709Z,99704.50
2024-04-01T02:59:10.558Z,99709.75
2024-04-01T03:00:17.703Z,99710.00
2024-04-01T03:01:18.582Z,99701.69
2024-04-01T03:02:19.414Z,99705.81
2024-04-01T03:03:20.605Z,99702.22
2024-04-01T03:04:21.473Z,99709.09
2024-04-01T03:05:22.311Z,99711.03
2024-04-01T03:06:23.144Z,99702.41
2024-04-01T03:07:23.979Z,99710.47
2024-04-01T03:08:25.295Z,99705.44
2024-04-01T03:09:26.137Z,99697.44
2024-04-01T03:10:27.051Z,99697.72
2024-04-01T03:11:27.912Z,99693.00
2024-04-01T03:12:28.821Z,99696.28
2024-04-01T03:13:29.729Z,99700.75
2024-04-01T03:14:30.580Z,99691.59
2024-04-01T03:15:31.531Z,99697.41
2024-04-01T03:16:32.386Z,99695.72
2024-04-01T03:17:33.245Z,99689.84
2024-04-01T03:18:34.114Z,99687.66
2024-04-01T03:19:34.948Z,99687.09
2024-04-01T03:20:35.782Z,99681.81
2024-04-01T03:21:36.618Z,99687.56
2024-04-01T03:22:37.479Z,99691.44
2024-04-01T03:23:38.323Z,99686.97
2024-04-01T03:24:39.162Z,99692.47
2024-04-01T03:25:40.062Z,99694.91
2024-04-01T03:26:40.910Z,99696.84
2024-04-01T03:27:42.726Z,99689.25
2024-04-01T03:28:44.240Z,99687.00
2024-04-01T03:29:45.077Z,99683.63
2024-04-01T03:30:46.536Z,99688.91
2024-04-01T03:31:47.372Z,99699.16
2024-04-01T03:32:48.240Z,99693.88
2024-04-01T03:33:49.076Z,99694.59
2024-04-01T03:34:50.358Z,99684.09
2024-04-01T03:35:56.962Z,99700.72
2024-04-01T03:36:59.633Z,99696.53
2024-04-01T03:38:00.586Z,99680.94
2024-04-01T03:39:01.669Z,99689.72
2024-04-01T03:40:02.670Z,99685.34
2024-04-01T03:41:03.626Z,99687.00
2024-04-01T03:42:04.533Z,99683.16
2024-04-01T03:43:08.524Z,99683.97
2024-04-01T03:44:09.365Z,99675.94
2024-04-01T03:45:10.191Z,99685.06
2024-04-01T03:46:11.053Z,99679.22
2024-04-01T03:47:11.894Z,99678.38
2024-04-01T03:48:12.773Z,99696.66
2024-04-01T03:49:13.635Z,99692.22
2024-04-01T03:50:14.500Z,99691.91
2024-04-01T03:51:15.676Z,99691.00
2024-04-01T03:52:16.505Z,99702.31
2024-04-01T03:53:17.499Z,99691.44
2024-04-01T03:54:18.362Z,99691.63
2024-04-01T03:55:19.290Z,99681.00
2024-04-01T03:56:20.148Z,99679.56
2024-04-01T03:57:20.985Z,99672.88
2024-04-01T03:58:21.829Z,99672.28
2024-04-01T03:59:22.674Z,99666.94
2024-04-01T04:00:23.544Z,99667.44
2024-04-01T04:01:24.642Z,99666.53
2024-04-01T04:02:25.514Z,99671.72
2024-04-01T04:03:26.372Z,99666.38
2024-04-01T04:04:27.251Z,99666.31
2024-04-01T04:05:28.279Z,99663.19
2024-04-01T04:06:29.142Z,99663.44
2024-04-01T04:07:29.977Z,99655.66
2024-04-01T04:08:30.821Z,99659.84
2024-04-01T04:09:31.678Z,99656.50
2024-04-01T04:10:32.520Z,99657.09
2024-04-01T04:11:33.718Z,99660.94
2024-04-01T04:12:34.548Z,99650.63
2024-04-01T04:13:35.420Z,99657.59
2024-04-01T04:14:36.287Z,99651.06
2024-04-01T04:15:37.151Z,99664.88
2024-04-01T04:16:38.062Z,99664.63
2024-04-01T04:17:38.900Z,99671.00
2024-04-01T04:18:39.755Z,99668.56
2024-04-01T04:19:40.591Z,99664.44
2024-04-01T04:20:41.430Z,99667.81
2024-04-01T04:21:42.306Z,99668.38
2024-04-01T04:22:45.091Z,99663.34
2024-04-01T04:23:45.957Z,99665.88
2024-04-01T04:24:47.039Z,99658.66
2024-04-01T04:25:47.886Z,99665.88
2024-04-01T04:26:48.852Z,99659.25
2024-04-01T04:27:49.720Z,99670.06
2024-04-01T04:28:50.702Z,99659.25
2024-04-01T04:29:51.563Z,99656.22
2024-04-01T04:30:52.423Z,99656.22
2024-04-01T04:31:54.512Z,99655.72
2024-04-01T04:32:55.369Z,99657.13
2024-04-01T04:33:56.291Z,99651.59
2024-04-01T04:34:57.142Z,99648.59
2024-04-01T04:35:58.274Z,99661.06
2024-04-01T04:36:59.249Z,99648.59
2024-04-01T04:38:02.128Z,99654.97
2024-04-01T04:39:19.441Z,99653.88
2024-04-01T04:40:20.502Z,99651.34
2024-04-01T04:41:22.380Z,99653.78
2024-04-01T04:42:23.230Z,99655.47
2024-04-01T04:43:24.067Z,99661.25
2024-04-01T04:44:24.900Z,99651.03
2024-04-01T04:45:26.000Z,99657.41
2024-04-01T04:46:26.889Z,99655.97
2024-04-01T04:47:27.777Z,99657.66
2024-04-01T04:48:28.878Z,99664.78
2024-04-01T04:49:29.722Z,99661.75
2024-04-01T04:50:31.669Z,99656.75
2024-04-01T04:51:33.632Z,99670.31
2024-04-01T04:52:34.472Z,99668.38
2024-04-01T04:53:35.985Z,99665.28
2024-04-01T04:54:37.270Z,99661.09
2024-04-01T04:55:40.173Z,99669.72
2024-04-01T04:56:41.011Z,99671.06
2024-04-01T04:57:42.277Z,99664.97
2024-04-01T04:58:43.112Z,99668.81
2024-04-01T04:59:43.957Z,99665.53
2024-04-01T05:00:44.820Z,99673.00
2024-04-01T05:01:45.656Z,99664.69
2024-04-01T05:02:47.788Z,99658.91
2024-04-01T05:03:48.675Z,99667.47
2024-04-01T05:04:50.052Z,99671.16
2024-04-01T05:05:50.947Z,99665.88
2024-04-01T05:06:51.784Z,99668.63
2024-04-01T05:07:52.619Z,99669.22
2024-04-01T05:08:53.562Z,99670.31
2024-04-01T05:09:54.427Z,99677.25
2024-04-01T05:10:56.336Z,99674.84
2024-04-01T05:11:57.269Z,99686.47
2024-04-01T05:12:58.198Z,99677.59
2024-04-01T05:13:59.099Z,99677.59
2024-04-01T05:14:59.940Z,99672.06
2024-04-01T05:16:01.008Z,99675.09
2024-04-01T05:17:01.853Z,99672.31
2024-04-01T05:18:03.679Z,99682.88
2024-04-01T05:19:07.458Z,99667.81
2024-04-01T05:20:13.791Z,99682.47
2024-04-01T05:21:14.635Z,99675.84
2024-04-01T05:22:15.465Z,99679.19
2024-04-01T05:23:16.298Z,99678.28
2024-04-01T05:24:17.778Z,99681.88
2024-04-01T05:25:18.709Z,99681.03
2024-04-01T05:26:20.241Z,99679.38
2024-04-01T05:27:21.651Z,99683.72
2024-04-01T05:28:22.693Z,99672.66
2024-04-01T05:29:23.531Z,99679.88
2024-04-01T05:30:24.371Z,99678.69
2024-04-01T05:31:25.237Z,99667.72
2024-04-01T05:32:26.086Z,99665.78
2024-04-01T05:33:33.266Z,99664.97
2024-04-01T05:34:37.768Z,99660.59
2024-04-01T05:35:38.606Z,99662.53
2024-04-01T05:36:39.456Z,99660.09
2024-04-01T05:37:41.388Z,99656.22
2024-04-01T05:38:42.273Z,99648.50
2024-04-01T05:39:43.120Z,99655.47
2024-04-01T05:40:44.111Z,99659.41
2024-04-01T05:41:44.953Z,99656.44
2024-04-01T05:42:45.822Z,99664.00
2024-04-01T05:43:46.667Z,99654.00
2024-04-01T05:44:47.846Z,99665.16
2024-04-01T05:45:50.054Z,99660.19
2024-04-01T05:46:51.306Z,99656.16
2024-04-01T05:47:52.818Z,99649.28
2024-04-01T05:48:53.697Z,99651.84
2024-04-01T05:49:54.541Z,99641.63
2024-04-01T05:50:55.379Z,99645.59
2024-04-01T05:51:56.240Z,99640.13
2024-04-01T05:52:57.114Z,99641.81
2024-04-01T05:53:57.963Z,99644.38
2024-04-01T05:54:58.809Z,99641.41
2024-04-01T05:56:03.486Z,99641.25
2024-04-01T05:57:04.361Z,99644.84
2024-04-01T05:58:05.197Z,99644.63
2024-04-01T05:59:06.037Z,99647.44
2024-04-01T06:00:08.347Z,99649.69
2024-04-01T06:01:11.691Z,99647.25
2024-04-01T06:02:12.531Z,99652.84
2024-04-01T06:03:13.412Z,99646.25
2024-04-01T06:04:14.272Z,99652.69
2024-04-01T06:05:15.354Z,99652.16
2024-04-01T06:06:16.201Z,99642.81
2024-04-01T06:07:17.039Z,99648.66
2024-04-01T06:08:17.873Z,99652.31
2024-04-01T06:09:18.729Z,99650.94
2024-04-01T06:10:20.052Z,99660.47
2024-04-01T06:11:20.891Z,99657.16
2024-04-01T06:12:21.716Z,99663.91
2024-04-01T06:13:22.547Z,99657.28
2024-04-01T06:14:23.383Z,99670.38
2024-04-01T06:15:24.255Z,99671.78
2024-04-01T06:16:26.157Z,99665.75
2024-04-01T06:17:27.036Z,99658.63
2024-04-01T06:18:27.903Z,99655.31
2024-04-01T06:19:28.822Z,99650.44
2024-04-01T06:20:30.146Z,99653.81
2024-04-01T06:21:32.586Z,99651.16
2024-04-01T06:22:33.576Z,99647.38
2024-04-01T06:23:34.428Z,99646.59
2024-04-01T06:24:35.282Z,99644.69
2024-04-01T06:25:39.921Z,99648.84
2024-04-01T06:26:40.778Z,99653.88
2024-04-01T06:27:41.612Z,99650.28
2024-04-01T06:28:44.551Z,99652.03
2024-04-01T06:29:45.407Z,99651.75
2024-04-01T06:30:47.974Z,99648.72
2024-04-01T06:31:48.842Z,99656.78
2024-04-01T06:32:49.714Z,99653.16
2024-04-01T06:33:50.572Z,99659.84
2024-04-01T06:34:54.172Z,99659.03
2024-04-01T06:36:22.745Z,99666.03
2024-04-01T06:37:23.595Z,99661.56
2024-04-01T06:38:24.428Z,99659.63
2024-04-01T06:39:25.288Z,99666.31
2024-04-01T06:40:26.253Z,99663.53
2024-04-01T06:41:27.528Z,99654.06
2024-04-01T06:42:28.412Z,99665.47
2024-04-01T06:43:29.563Z,99666.34
2024-04-01T06:44:30.478Z,99660.75
2024-04-01T06:45:31.317Z,99657.44
2024-04-01T06:46:32.158Z,99665.22
2024-04-01T06:47:33.030Z,99652.97
2024-04-01T06:48:34.865Z,99658.28
2024-04-01T06:49:35.727Z,99657.97
2024-04-01T06:50:36.586Z,99658.25
2024-04-01T06:51:37.432Z,99660.72
2024-04-01T06:52:38.294Z,99668.22
2024-04-01T06:53:39.201Z,99670.69
2024-04-01T06:54:40.210Z,99664.31
2024-04-01T06:55:41.053Z,99665.38
2024-04-01T06:56:41.892Z,99664.25
2024-04-01T06:57:43.687Z,99660.63
2024-04-01T06:58:44.548Z,99667.00
2024-04-01T06:59:45.386Z,99664.72
2024-04-01T07:00:46.221Z,99659.94
2024-04-01T07:01:47.059Z,99655.47
2024-04-01T07:02:47.927Z,99653.50
2024-04-01T07:03:48.843Z,99654.25
2024-04-01T07:04:49.691Z,99657.25
2024-04-01T07:05:50.552Z,99655.19
2024-04-01T07:06:51.408Z,99653.97
2024-04-01T07:07:52.246Z,99655.75
2024-04-01T07:08:53.087Z,99657.66
2024-04-01T07:09:53.937Z,99654.81
2024-04-01T07:10:54.837Z,99652.44
2024-04-01T07:11:55.686Z,99654.03
2024-04-01T07:12:56.520Z,99652.84
2024-04-01T07:13:57.365Z,99654.19
2024-04-01T07:14:58.205Z,99655.94
2024-04-01T07:15:59.081Z,99658.13
2024-04-01T07:17:01.387Z,99651.13
2024-04-01T07:18:02.221Z,99652.25
2024-04-01T07:19:03.071Z,99652.72
2024-04-01T07:20:05.044Z,99663.78
2024-04-01T07:21:05.915Z,99650.81
2024-04-01T07:22:06.757Z,99657.69
2024-04-01T07:23:07.598Z,99647.63
2024-04-01T07:24:08.472Z,99646.22
2024-04-01T07:25:09.337Z,99648.09
2024-04-01T07:26:10.221Z,99652.78
2024-04-01T07:27:11.051Z,99642.69
2024-04-01T07:28:11.930Z,99649.19
2024-04-01T07:29:15.606Z,99650.84
2024-04-01T07:30:16.554Z,99653.41
2024-04-01T07:31:17.418Z,99660.03
2024-04-01T07:32:18.379Z,99655.84
2024-04-01T07:33:19.260Z,99659.81
2024-04-01T07:34:20.130Z,99653.31
2024-04-01T07:35:20.974Z,99658.00
2024-04-01T07:36:21.837Z,99656.25
2024-04-01T07:37:22.768Z,99654.50
2024-04-01T07:38:23.598Z,99664.13
2024-04-01T07:39:24.492Z,99654.19
2024-04-01T07:40:26.425Z,99657.53
2024-04-01T07:41:27.268Z,99657.53
2024-04-01T07:42:28.112Z,99656.41
2024-04-01T07:43:28.982Z,99660.47
2024-04-01T07:44:29.846Z,99651.03
2024-04-01T07:45:30.707Z,99656.97
2024-04-01T07:46:31.589Z,99657.94
2024-04-01T07:47:32.559Z,99662.69
2024-04-01T07:48:33.393Z,99652.91
2024-04-01T07:49:34.628Z,99653.34
2024-04-01T07:50:35.459Z,99655.28
2024-04-01T07:51:36.324Z,99652.72
2024-04-01T07:52:37.650Z,99648.50
2024-04-01T07:53:38.538Z,99652.84
2024-04-01T07:54:39.377Z,99644.00
2024-04-01T07:55:40.228Z,99648.09
2024-04-01T07:56:41.066Z,99645.28
2024-04-01T07:57:41.906Z,99642.22
2024-04-01T07:58:42.775Z,99645.00
2024-04-01T07:59:44.118Z,99640.66
2024-04-01T08:00:44.960Z,99651.69
2024-04-01T08:01:45.802Z,99639.16
2024-04-01T08:02:46.658Z,99645.88
2024-04-01T08:03:47.494Z,99646.50
2024-04-01T08:04:48.839Z,99644.66
2024-04-01T08:05:50.531Z,99647.88
2024-04-01T08:06:51.393Z,99643.31
2024-04-01T08:07:52.236Z,99648.94
2024-04-01T08:08:53.088Z,99642.69
2024-04-01T08:09:53.922Z,99644.03
2024-04-01T08:10:54.757Z,99654.75
2024-04-01T08:11:55.622Z,99643.66
2024-04-01T08:12:56.469Z,99634.50
2024-04-01T08:13:57.312Z,99638.84
2024-04-01T08:14:58.163Z,99636.69
2024-04-01T08:16:02.399Z,99639.88
2024-04-01T08:17:03.978Z,99644.09
2024-04-01T08:18:04.950Z,99640.00
2024-04-01T08:19:05.790Z,99633.38
2024-04-01T08:20:08.457Z,99633.88
2024-04-01T08:21:09.331Z,99637.00
2024-04-01T08:22:10.230Z,99632.84
2024-04-01T08:23:11.062Z,99634.13
2024-04-01T08:24:12.164Z,99627.75
2024-04-01T08:25:13.733Z,99635.38
2024-04-01T08:26:14.579Z,99624.25
2024-04-01T08:27:16.922Z,99626.22
2024-04-01T08:28:17.876Z,99630.56
2024-04-01T08:29:18.714Z,99624.34
2024-04-01T08:30:19.546Z,99631.81
2024-04-01T08:31:20.408Z,99619.00
2024-04-01T08:32:21.242Z,99629.16
2024-04-01T08:33:22.106Z,99621.47
2024-04-01T08:34:23.631Z,99617.84
2024-04-01T08:35:24.522Z,99616.00
2024-04-01T08:36:25.378Z,99622.91
2024-04-01T08:37:26.638Z,99620.47
2024-04-01T08:38:27.962Z,99613.56
2024-04-01T08:39:28.812Z,99610.94
2024-04-01T08:40:31.830Z,99609.47
2024-04-01T08:41:51.950Z,99608.00
2024-04-01T08:42:55.260Z,99609.72
2024-04-01T08:43:58.786Z,99620.00
2024-04-01T08:44:59.640Z,99607.63
2024-04-01T08:46:00.603Z,99598.22
2024-04-01T08:47:01.530Z,99610.03
2024-04-01T08:48:06.976Z,99608.22
2024-04-01T08:49:10.989Z,99610.06
2024-04-01T08:50:23.766Z,99604.63
2024-04-01T08:51:25.237Z,99605.97
2024-04-01T08:52:26.953Z,99608.88
2024-04-01T08:53:33.511Z,99609.88
2024-04-01T08:54:34.369Z,99609.47
2024-04-01T08:55:35.220Z,99600.03
2024-04-01T08:56:42.407Z,99602.66
2024-04-01T08:57:44.815Z,99596.38
2024-04-01T08:58:48.254Z,99599.19
2024-04-01T08:59:49.768Z,99601.34
2024-04-01T09:00:50.623Z,99603.16
2024-04-01T09:01:51.468Z,99594.06
2024-04-01T09:02:52.311Z,99608.66
2024-04-01T09:03:53.414Z,99594.56
2024-04-01T09:04:54.808Z,99604.44
2024-04-01T09:05:57.792Z,99586.53
2024-04-01T09:06:58.727Z,99598.28
2024-04-01T09:07:59.574Z,99595.78
2024-04-01T09:09:00.459Z,99586.69
2024-04-01T09:10:01.291Z,99585.78
2024-04-01T09:11:02.133Z,99590.81
2024-04-01T09:12:03.140Z,99596.56
2024-04-01T09:13:04.062Z,99592.69
2024-04-01T09:14:05.744Z,99591.34
2024-04-01T09:15:12.036Z,99588.25
2024-04-01T09:16:12.871Z,99593.47
2024-04-01T09:17:22.872Z,99583.28
2024-04-01T09:18:23.746Z,99583.56
2024-04-01T09:19:24.907Z,99584.75
2024-04-01T09:20:25.780Z,99577.31
2024-04-01T09:21:26.638Z,99579.47
2024-04-01T09:22:27.493Z,99587.03
2024-04-01T09:23:30.607Z,99578.16
2024-04-01T09:24:33.928Z,99576.25
2024-04-01T09:25:34.867Z,99569.59
2024-04-01T09:26:35.759Z,99567.63
2024-04-01T09:27:36.591Z,99571.91
2024-04-01T09:28:37.458Z,99570.28
2024-04-01T09:29:38.361Z,99576.31
2024-04-01T09:30:39.209Z,99567.94
2024-04-01T09:31:40.105Z,99571.06
2024-04-01T09:32:40.951Z,99574.78
2024-04-01T09:33:41.788Z,99567.94
2024-04-01T09:34:42.865Z,99561.38
2024-04-01T09:35:43.743Z,99568.69
2024-04-01T09:36:44.597Z,99568.56
2024-04-01T09:37:45.467Z,99564.63
2024-04-01T09:38:46.579Z,99556.94
2024-04-01T09:39:47.441Z,99564.28
2024-04-01T09:40:51.765Z,99561.78
2024-04-01T09:41:52.629Z,99554.97
2024-04-01T09:42:57.660Z,99558.06
2024-04-01T09:43:58.566Z,99550.66
2024-04-01T09:44:59.670Z,99553.31
2024-04-01T09:46:02.739Z,99558.03
2024-04-01T09:47:05.080Z,99550.03
2024-04-01T09:48:06.288Z,99551.59
2024-04-01T09:49:07.132Z,99553.72
2024-04-01T09:50:07.959Z,99547.09
2024-04-01T09:51:08.829Z,99547.28
2024-04-01T09:52:09.671Z,99546.91
2024-04-01T09:53:10.510Z,99555.00
2024-04-01T09:54:11.356Z,99548.25
2024-04-01T09:55:21.469Z,99535.59
2024-04-01T09:56:39.968Z,99545.66
2024-04-01T09:58:18.233Z,99528.34
2024-04-01T09:59:27.295Z,99542.78
2024-04-01T10:00:38.347Z,99518.34
2024-04-01T10:02:16.075Z,99528.03
2024-04-01T10:03:38.217Z,99523.63
2024-04-01T10:04:55.816Z,99522.47
2024-04-01T10:06:14.435Z,99518.69
2024-04-01T10:07:47.328Z,99519.16
2024-04-01T10:09:15.594Z,99507.03
2024-04-01T10:10:35.732Z,99513.13
2024-04-01T10:11:56.285Z,99511.41
2024-04-01T10:13:33.611Z,99517.16
2024-04-01T10:15:20.603Z,99518.19
2024-04-01T10:16:53.875Z,99504.81
2024-04-01T10:18:35.603Z,99506.19
2024-04-01T10:20:08.671Z,99499.41
2024-04-01T10:21:20.910Z,99498.69
2024-04-01T10:22:30.428Z,99490.06
2024-04-01T10:23:55.574Z,99490.81
2024-04-01T10:25:05.291Z,99480.47
2024-04-01T10:26:43.246Z,99488.31
2024-04-01T10:28:08.175Z,99488.13
2024-04-01T10:29:46.028Z,99490.56
2024-04-01T10:31:08.664Z,99479.19
2024-04-01T10:32:15.211Z,99485.03
2024-04-01T10:33:52.959Z,99487.53
2024-04-01T10:35:20.850Z,99479.94
2024-04-01T10:36:34.188Z,99477.25
2024-04-01T10:37:51.436Z,99482.84
2024-04-01T10:39:33.889Z,99473.53
2024-04-01T10:40:53.099Z,99472.69
2024-04-01T10:41:59.461Z,99472.22
2024-04-01T10:43:29.057Z,99462.00
2024-04-01T10:45:01.144Z,99459.00
2024-04-01T10:46:04.684Z,99448.44
2024-04-01T10:47:40.410Z,99454.81
2024-04-01T10:49:23.261Z,99453.09
2024-04-01T10:50:51.758Z,99461.53
2024-04-01T10:52:21.731Z,99449.50
2024-04-01T10:53:57.638Z,99455.94
2024-04-01T10:55:08.301Z,99442.69
2024-04-01T10:56:34.353Z,99436.47
2024-04-01T10:57:59.421Z,99447.34
2024-04-01T10:59:18.610Z,99440.28
2024-04-01T11:00:52.809Z,99432.28
2024-04-01T11:02:14.606Z,99427.91
2024-04-01T11:03:24.184Z,99422.88
2024-04-01T11:04:33.508Z,99423.56
2024-04-01T11:06:11.619Z,99426.09
2024-04-01T11:07:15.233Z,99416.34
2024-04-01T11:08:29.099Z,99423.03
2024-04-01T11:09:55.887Z,99406.63
2024-04-01T11:11:15.295Z,99405.50
2024-04-01T11:12:51.143Z,99402.50
2024-04-01T11:13:52.017Z,99398.59
2024-04-01T11:14:52.908Z,99399.16
2024-04-01T11:15:55.433Z,99393.09
2024-04-01T11:16:57.126Z,99395.66
2024-04-01T11:18:22.345Z,99400.53
2024-04-01T11:19:37.637Z,99396.69
2024-04-01T11:20:44.480Z,99386.97
2024-04-01T11:21:50.841Z,99390.75
2024-04-01T11:23:01.295Z,99382.91
2024-04-01T11:24:33.494Z,99382.72
2024-04-01T11:26:11.064Z,99376.53
2024-04-01T11:27:30.446Z,99376.97
2024-04-01T11:29:08.343Z,99391.25
2024-04-01T11:30:20.908Z,99382.91
2024-04-01T11:31:23.796Z,99375.38
2024-04-01T11:32:24.900Z,99359.41
2024-04-01T11:33:27.125Z,99357.81
2024-04-01T11:34:54.691Z,99370.59
2024-04-01T11:35:55.528Z,99362.97
2024-04-01T11:37:07.671Z,99356.53
2024-04-01T11:38:26.940Z,99360.59
2024-04-01T11:39:27.773Z,99353.56
2024-04-01T11:40:32.828Z,99352.09
2024-04-01T11:41:34.394Z,99346.31
2024-04-01T11:42:38.934Z,99341.03
2024-04-01T11:43:41.069Z,99335.63
2024-04-01T11:44:46.250Z,99339.75
2024-04-01T11:45:47.798Z,99335.53
2024-04-01T11:46:48.674Z,99334.63
2024-04-01T11:47:49.528Z,99336.97
2024-04-01T11:48:56.347Z,99329.88
2024-04-01T11:49:57.229Z,99331.53
2024-04-01T11:50:58.410Z,99324.88
2024-04-01T11:51:59.305Z,99329.38
2024-04-01T11:53:05.303Z,99321.81
2024-04-01T11:54:08.727Z,99321.66
2024-04-01T11:55:12.861Z,99323.81
2024-04-01T11:56:13.705Z,99327.38
2024-04-01T11:57:23.724Z,99319.66
2024-04-01T11:58:25.190Z,99317.16
2024-04-01T11:59:29.847Z,99313.00
2024-04-01T12:00:30.889Z,99303.03
2024-04-01T12:01:32.330Z,99305.56
2024-04-01T12:02:34.137Z,99306.56
2024-04-01T12:03:39.461Z,99297.94
2024-04-01T12:04:40.319Z,99292.28
2024-04-01T12:05:51.571Z,99297.31
2024-04-01T12:06:52.411Z,99284.56
2024-04-01T12:07:53.245Z,99295.84
2024-04-01T12:08:54.088Z,99280.38
2024-04-01T12:09:54.920Z,99287.00
2024-04-01T12:10:58.134Z,99282.84
2024-04-01T12:11:59.778Z,99273.16
2024-04-01T12:13:00.638Z,99274.44
2024-04-01T12:14:05.028Z,99278.22
2024-04-01T12:15:06.056Z,99272.16
2024-04-01T12:16:08.288Z,99270.78
2024-04-01T12:17:09.130Z,99276.09
2024-04-01T12:18:16.210Z,99267.88
2024-04-01T12:19:17.410Z,99255.53
2024-04-01T12:20:18.489Z,99279.28
2024-04-01T12:21:20.856Z,99263.81
2024-04-01T12:22:21.800Z,99266.72
2024-04-01T12:23:23.724Z,99269.94
2024-04-01T12:24:24.555Z,99269.69
2024-04-01T12:25:25.408Z,99267.47
2024-04-01T12:26:36.255Z,99270.69
2024-04-01T12:27:37.724Z,99268.50